Time;durP1;ratioP1;P1;durP2;ratioP2;P2;SDS_P1;SDS_P2;PMS_P1;PMS_P2;Temp;Humidity;BMP_temperature;BMP_pressure;BME280_temperature;BME280_humidity;BME280_pressure;Samples;Min_cycle;Max_cycle;Signal;HPM_P1;HPM_P2
2022/08/27 00:02:17;;;;;;;17.17;15.02;;;;;;;18.07;100.00;95663.34;5012978;28;24440;-77
2022/08/27 00:04:44;;;;;;;18.55;14.57;;;;;;;18.07;100.00;95671.22;5010744;28;24798;-77
2022/08/27 00:07:12;;;;;;;19.15;16.50;;;;;;;17.95;100.00;95668.91;5012874;28;24468;-76
2022/08/27 00:09:39;;;;;;;21.95;17.52;;;;;;;17.83;100.00;95670.88;5012370;28;24444;-77
2022/08/27 00:12:06;;;;;;;20.85;17.17;;;;;;;17.78;100.00;95663.47;5012679;28;24436;-76
2022/08/27 00:14:36;;;;;;;20.90;18.38;;;;;;;17.74;100.00;95675.16;5012672;28;24447;-77
2022/08/27 00:17:04;;;;;;;24.05;20.02;;;;;;;17.65;100.00;95670.78;5006531;28;24443;-76
2022/08/27 00:19:30;;;;;;;22.97;19.47;;;;;;;17.73;100.00;95667.47;5012690;28;24463;-77
2022/08/27 00:21:57;;;;;;;25.95;19.83;;;;;;;17.72;100.00;95671.03;5012421;28;24990;-76
2022/08/27 00:24:24;;;;;;;22.30;19.35;;;;;;;17.79;100.00;95674.75;5008066;28;24448;-76
2022/08/27 00:26:52;;;;;;;21.20;17.88;;;;;;;17.88;100.00;95666.88;5012587;28;24522;-76
2022/08/27 00:29:19;;;;;;;22.67;17.65;;;;;;;17.99;100.00;95670.31;5012503;28;24531;-76
2022/08/27 00:31:47;;;;;;;24.25;19.50;;;;;;;18.25;100.00;95678.31;5010073;28;24443;-77
2022/08/27 00:34:13;;;;;;;21.90;18.45;;;;;;;18.29;100.00;95674.44;5012150;28;24448;-76
2022/08/27 00:36:40;;;;;;;21.13;18.20;;;;;;;18.24;100.00;95676.66;5011988;28;24420;-76
2022/08/27 00:39:07;;;;;;;21.65;18.25;;;;;;;18.19;100.00;95674.47;5009342;28;24484;-76
2022/08/27 00:41:33;;;;;;;21.58;18.05;;;;;;;18.19;100.00;95676.28;5003490;28;24439;-76
2022/08/27 00:44:01;;;;;;;18.73;14.77;;;;;;;18.16;100.00;95671.31;5007873;28;24447;-76
2022/08/27 00:46:38;;;;;;;14.95;12.38;;;;;;;18.17;100.00;95671.19;5012471;28;24440;-76
2022/08/27 00:49:09;;;;;;;14.80;12.98;;;;;;;18.17;100.00;95671.19;5012132;28;24435;-76
2022/08/27 00:51:38;;;;;;;18.53;12.87;;;;;;;18.18;100.00;95672.00;5012171;28;24518;-76
2022/08/27 00:54:07;;;;;;;15.30;13.15;;;;;;;18.23;100.00;95672.38;5011605;28;24487;-76
2022/08/27 00:56:43;;;;;;;14.90;13.30;;;;;;;18.25;100.00;95660.78;5008441;28;24437;-76
2022/08/27 00:59:10;;;;;;;15.40;13.68;;;;;;;18.25;100.00;95666.03;5012185;28;24498;-77
2022/08/27 01:02:17;;;;;;;16.70;14.82;;;;;;;18.27;100.00;95658.00;5011941;28;24428;-76
2022/08/27 01:04:24;;;;;;;17.33;14.57;;;;;;;18.29;100.00;95659.53;5007229;28;24980;-76
2022/08/27 01:06:51;;;;;;;15.93;12.95;;;;;;;18.30;100.00;95657.72;5011142;28;24440;-76
2022/08/27 01:09:18;;;;;;;16.95;13.57;;;;;;;18.30;100.00;95652.47;5001527;28;24799;-77
2022/08/27 01:11:46;;;;;;;16.33;14.07;;;;;;;18.32;100.00;95650.56;5010780;28;24432;-76
2022/08/27 01:14:13;;;;;;;14.45;12.95;;;;;;;18.32;100.00;95651.38;5008839;28;24495;-76
2022/08/27 01:16:45;;;;;;;18.02;13.50;;;;;;;18.31;100.00;95644.47;5011432;28;24447;-77
2022/08/27 01:19:20;;;;;;;14.02;12.48;;;;;;;18.28;100.00;95644.78;5009122;28;24456;-76
2022/08/27 01:21:57;;;;;;;14.98;11.82;;;;;;;18.28;100.00;95646.53;5006556;28;24433;-77
2022/08/27 01:24:30;;;;;;;15.63;12.52;;;;;;;18.26;100.00;95643.25;5011788;28;24451;-75
2022/08/27 01:26:59;;;;;;;16.13;12.30;;;;;;;18.24;100.00;95640.75;5000881;28;24472;-74
2022/08/27 01:29:26;;;;;;;13.45;12.00;;;;;;;18.24;100.00;95639.94;5001978;28;25026;-74
2022/08/27 01:31:52;;;;;;;17.92;13.18;;;;;;;18.23;100.00;95639.13;5006595;28;24448;-75
2022/08/27 01:34:19;;;;;;;14.10;12.52;;;;;;;18.25;100.00;95629.34;5005883;28;24445;-74
2022/08/27 01:36:45;;;;;;;16.48;13.65;;;;;;;18.18;100.00;95628.25;5003583;28;24998;-74
2022/08/27 01:39:12;;;;;;;21.95;15.02;;;;;;;18.01;100.00;95631.66;4995732;28;24476;-74
2022/08/27 01:41:40;;;;;;;19.17;14.27;;;;;;;18.07;100.00;95629.28;5006374;28;24447;-74
2022/08/27 01:44:06;;;;;;;15.80;13.82;;;;;;;18.05;100.00;95627.78;5005398;28;24448;-74
2022/08/27 01:46:33;;;;;;;14.85;13.38;;;;;;;18.09;100.00;95631.75;5009644;28;24553;-74
2022/08/27 01:48:59;;;;;;;15.57;13.95;;;;;;;18.05;100.00;95625.97;5010972;28;24429;-74
2022/08/27 01:51:26;;;;;;;17.08;15.27;;;;;;;17.86;100.00;95636.53;5005277;28;24444;-75
2022/08/27 01:53:52;;;;;;;17.77;14.50;;;;;;;17.84;100.00;95623.59;5011138;28;24819;-74
2022/08/27 01:56:19;;;;;;;15.95;14.35;;;;;;;17.90;100.00;95627.44;5007163;28;24862;-74
2022/08/27 01:58:47;;;;;;;18.77;15.48;;;;;;;17.94;100.00;95628.78;5009968;28;25010;-74
2022/08/27 02:01:16;;;;;;;16.52;14.48;;;;;;;17.97;100.00;95625.88;5007906;28;25016;-74
2022/08/27 02:03:43;;;;;;;18.65;14.30;;;;;;;17.91;100.00;95623.84;5009300;28;24486;-75
2022/08/27 02:06:12;;;;;;;17.30;15.50;;;;;;;17.85;100.00;95627.88;5003440;28;24494;-74
2022/08/27 02:08:38;;;;;;;18.35;15.23;;;;;;;17.89;100.00;95620.53;5008996;28;24447;-74
2022/08/27 02:11:07;;;;;;;20.05;16.25;;;;;;;17.72;100.00;95629.13;5003138;28;24463;-74
2022/08/27 02:13:34;;;;;;;18.25;16.23;;;;;;;17.60;100.00;95629.28;5003164;28;24451;-75
2022/08/27 02:16:02;;;;;;;19.33;15.23;;;;;;;17.57;100.00;95634.00;5005922;28;24472;-75
2022/08/27 02:18:28;;;;;;;17.77;13.63;;;;;;;17.67;100.00;95630.38;5009262;28;24814;-74
2022/08/27 02:20:55;;;;;;;15.57;13.90;;;;;;;17.74;100.00;95638.50;5009374;28;24452;-75
2022/08/27 02:23:21;;;;;;;15.38;13.77;;;;;;;17.86;100.00;95631.31;5009386;28;24454;-74
2022/08/27 02:25:48;;;;;;;15.05;12.95;;;;;;;17.92;100.00;95641.22;5009092;28;25080;-75
2022/08/27 02:28:14;;;;;;;14.97;12.97;;;;;;;17.85;100.00;95646.22;5008874;28;24447;-75
2022/08/27 02:30:41;;;;;;;18.50;16.50;;;;;;;17.54;100.00;95642.97;5004919;28;24977;-74
2022/08/27 02:33:09;;;;;;;19.75;16.80;;;;;;;17.34;100.00;95641.34;5008966;28;24987;-74
2022/08/27 02:35:37;;;;;;;19.10;17.20;;;;;;;17.13;100.00;95639.75;5009329;28;24440;-75
2022/08/27 02:38:05;;;;;;;24.70;17.05;;;;;;;17.10;100.00;95641.81;5006780;28;24447;-74
2022/08/27 02:40:31;;;;;;;36.73;16.13;;;;;;;17.11;100.00;95648.69;5008989;28;24467;-75
2022/08/27 02:42:58;;;;;;;18.45;15.98;;;;;;;17.16;100.00;95649.91;5009027;28;24452;-75
2022/08/27 02:45:24;;;;;;;18.25;14.27;;;;;;;17.35;100.00;95648.25;5006496;28;25004;-74
2022/08/27 02:47:51;;;;;;;16.80;15.13;;;;;;;17.72;100.00;95650.06;5007629;28;24551;-75
2022/08/27 02:50:18;;;;;;;21.55;14.48;;;;;;;17.52;100.00;95655.38;5008023;28;24432;-75
2022/08/27 02:52:45;;;;;;;16.35;14.70;;;;;;;17.55;100.00;95655.09;5008311;28;24472;-75
2022/08/27 02:55:13;;;;;;;16.67;15.07;;;;;;;17.52;100.00;95655.38;5008900;28;24936;-74
2022/08/27 02:57:39;;;;;;;17.38;15.57;;;;;;;17.58;100.00;95657.44;5009181;28;24436;-75
2022/08/27 03:00:08;;;;;;;17.77;15.98;;;;;;;17.66;100.00;95656.72;5005381;28;24460;-74
2022/08/27 03:02:36;;;;;;;20.23;15.82;;;;;;;17.58;100.00;95654.81;4999305;28;24432;-74
2022/08/27 03:05:02;;;;;;;24.10;19.45;;;;;;;17.64;100.00;95648.16;5002751;28;24432;-74
2022/08/27 03:07:30;;;;;;;25.27;22.65;;;;;;;17.45;100.00;95643.00;5005453;28;24432;-74
2022/08/27 03:09:56;;;;;;;32.67;25.95;;;;;;;17.26;100.00;95639.44;5008161;28;24436;-74
2022/08/27 03:12:23;;;;;;;31.88;27.65;;;;;;;17.21;100.00;95639.06;5008750;28;24436;-74
2022/08/27 03:14:49;;;;;;;36.25;28.90;;;;;;;17.20;100.00;95644.41;5004093;28;24436;-74
2022/08/27 03:20:02;;;;;;;47.75;33.88;;;;;;;17.12;100.00;95638.09;5004819;28;24842;-75
2022/08/27 03:22:30;;;;;;;38.72;30.95;;;;;;;17.18;100.00;95642.75;5009090;28;24510;-74
2022/08/27 03:24:57;;;;;;;44.13;32.47;;;;;;;17.18;100.00;95648.00;5005094;28;24443;-74
2022/08/27 03:27:23;;;;;;;43.50;31.10;;;;;;;17.25;100.00;95636.97;5009464;28;24440;-74
2022/08/27 03:29:49;;;;;;;43.33;33.28;;;;;;;17.21;100.00;95636.44;5009926;28;24981;-74
2022/08/27 03:32:16;;;;;;;45.83;35.80;;;;;;;17.22;100.00;95639.88;5009038;28;24443;-74
2022/08/27 03:34:42;;;;;;;43.13;32.78;;;;;;;17.12;100.00;95645.94;5001052;28;24974;-75
2022/08/27 03:37:09;;;;;;;44.22;34.65;;;;;;;17.10;100.00;95636.59;5008960;28;24441;-74
2022/08/27 03:39:37;;;;;;;50.63;35.70;;;;;;;17.02;100.00;95636.44;5009184;28;24455;-74
2022/08/27 03:42:04;;;;;;;48.63;35.83;;;;;;;17.00;100.00;95638.38;5009218;28;24445;-74
2022/08/27 03:44:31;;;;;;;45.95;34.33;;;;;;;16.95;100.00;95635.38;5009396;28;24441;-74
2022/08/27 03:46:58;;;;;;;45.30;33.70;;;;;;;17.02;100.00;95633.81;5009283;28;24463;-75
2022/08/27 03:49:25;;;;;;;40.83;32.07;;;;;;;17.06;100.00;95635.22;5006299;28;24881;-75
2022/08/27 03:51:52;;;;;;;44.65;33.60;;;;;;;16.98;100.00;95638.50;5008862;28;24440;-75
2022/08/27 03:54:19;;;;;;;39.33;30.73;;;;;;;17.10;100.00;95642.66;5004012;28;24861;-74
2022/08/27 03:56:47;;;;;;;44.90;32.85;;;;;;;17.08;100.00;95638.50;5006915;28;24452;-73
2022/08/27 03:59:15;;;;;;;41.00;31.55;;;;;;;17.17;100.00;95635.88;5008667;28;25014;-73
2022/08/27 04:01:42;;;;;;;35.60;30.27;;;;;;;17.28;100.00;95631.44;5011189;28;24475;-75
2022/08/27 04:04:08;;;;;;;39.75;31.20;;;;;;;17.48;100.00;95633.06;5007346;28;24440;-74
2022/08/27 04:06:35;;;;;;;36.05;29.83;;;;;;;17.52;100.00;95633.59;5010137;28;24806;-74
2022/08/27 04:09:02;;;;;;;38.45;29.75;;;;;;;17.51;100.00;95637.19;5012615;28;24436;-74
2022/08/27 04:11:29;;;;;;;42.80;32.17;;;;;;;17.55;100.00;95633.31;5012411;28;24428;-74
2022/08/27 04:13:56;;;;;;;35.60;28.33;;;;;;;17.39;100.00;95636.50;5012378;28;24502;-74
2022/08/27 04:16:24;;;;;;;38.58;29.67;;;;;;;17.31;100.00;95629.38;5010089;28;24530;-74
2022/08/27 04:18:51;;;;;;;44.85;33.72;;;;;;;17.28;100.00;95628.81;5012459;28;24449;-74
2022/08/27 04:21:17;;;;;;;39.28;31.60;;;;;;;17.26;100.00;95639.44;5012328;28;24459;-75
2022/08/27 04:23:43;;;;;;;34.13;28.35;;;;;;;17.27;100.00;95633.22;5007498;28;24525;-75
2022/08/27 04:26:11;;;;;;;33.35;28.42;;;;;;;17.30;100.00;95640.00;5012432;28;24436;-74
2022/08/27 04:28:38;;;;;;;37.30;29.20;;;;;;;17.31;100.00;95636.41;5011588;28;25134;-74
2022/08/27 04:31:08;;;;;;;37.70;28.58;;;;;;;17.37;100.00;95641.09;5006393;28;24429;-75
2022/08/27 04:33:35;;;;;;;36.97;28.80;;;;;;;17.47;100.00;95651.53;5006544;28;24443;-75
2022/08/27 04:36:03;;;;;;;32.72;27.80;;;;;;;17.46;100.00;95642.00;5010443;28;24807;-73
2022/08/27 04:38:30;;;;;;;39.78;32.00;;;;;;;17.44;100.00;95647.41;5011965;28;24463;-74
2022/08/27 04:43:41;;;;;;;41.25;29.70;;;;;;;17.40;100.00;95644.25;5009850;28;25020;-75
2022/08/27 04:46:09;;;;;;;34.40;29.33;;;;;;;17.41;100.00;95642.44;5000913;28;24518;-75
2022/08/27 04:48:35;;;;;;;37.38;30.30;;;;;;;17.43;100.00;95648.38;5008296;28;24440;-73
2022/08/27 04:51:02;;;;;;;36.25;28.45;;;;;;;17.48;100.00;95643.53;5011414;28;24806;-74
2022/08/27 04:53:28;;;;;;;35.28;28.98;;;;;;;17.50;100.00;95651.25;5010955;28;24440;-74
2022/08/27 04:55:56;;;;;;;35.95;30.23;;;;;;;17.45;100.00;95650.84;5011021;28;24435;-75
2022/08/27 04:58:26;;;;;;;36.80;28.80;;;;;;;17.49;100.00;95650.41;5011153;28;24897;-74
2022/08/27 05:00:54;;;;;;;32.97;27.27;;;;;;;17.54;100.00;95645.59;5008734;28;24531;-74
2022/08/27 05:03:24;;;;;;;35.30;27.55;;;;;;;17.57;100.00;95645.28;5024721;23;25012;-79
2022/08/27 05:05:53;;;;;;;29.20;25.92;;;;;;;17.60;100.00;95641.56;5011617;28;24457;-79
2022/08/27 05:08:20;;;;;;;33.28;27.27;;;;;;;17.61;100.00;95649.31;5013149;28;24436;-79
2022/08/27 05:10:48;;;;;;;31.88;26.08;;;;;;;17.63;100.00;95646.53;5011242;28;24544;-79
2022/08/27 05:13:17;;;;;;;30.08;25.70;;;;;;;17.65;100.00;95648.03;5010756;28;24440;-79
2022/08/27 05:15:44;;;;;;;31.38;25.98;;;;;;;17.69;100.00;95651.22;5009596;28;25056;-79
2022/08/27 05:18:12;;;;;;;32.75;26.65;;;;;;;17.73;100.00;95646.50;5010991;28;24519;-79
2022/08/27 05:20:44;;;;;;;35.58;26.55;;;;;;;17.77;100.00;95653.97;5011445;28;24998;-79
2022/08/27 05:23:11;;;;;;;34.35;28.13;;;;;;;17.85;100.00;95653.25;5012834;28;24451;-79
2022/08/27 05:25:39;;;;;;;34.72;27.52;;;;;;;17.79;100.00;95657.25;5012102;28;24448;-79
2022/08/27 05:28:05;;;;;;;36.40;28.23;;;;;;;17.72;100.00;95650.91;5008233;28;24512;-79
2022/08/27 05:30:35;;;;;;;38.05;27.95;;;;;;;17.82;100.00;95649.09;5009773;28;24977;-79
2022/08/27 05:33:02;;;;;;;40.67;31.00;;;;;;;18.03;100.00;95650.69;5008599;28;24508;-79
2022/08/27 05:35:30;;;;;;;37.33;29.05;;;;;;;17.94;100.00;95654.16;5003577;28;24992;-80
2022/08/27 05:37:58;;;;;;;39.45;30.38;;;;;;;17.85;100.00;95648.00;5005640;28;24802;-79
2022/08/27 05:40:25;;;;;;;33.63;28.23;;;;;;;17.76;100.00;95638.38;5010392;28;24559;-78
2022/08/27 05:42:52;;;;;;;37.63;29.42;;;;;;;17.64;100.00;95646.38;5000992;28;24985;-77
2022/08/27 05:45:18;;;;;;;30.65;26.25;;;;;;;17.70;100.00;95645.00;5007986;28;24459;-78
2022/08/27 05:47:45;;;;;;;37.33;29.20;;;;;;;17.77;100.00;95650.53;5011758;28;24452;-77
2022/08/27 05:50:11;;;;;;;36.42;29.30;;;;;;;17.81;100.00;95646.66;5008691;28;24432;-77
2022/08/27 05:52:38;;;;;;;35.97;28.10;;;;;;;17.81;100.00;95649.25;5011211;28;24440;-77
2022/08/27 05:55:07;;;;;;;40.55;26.33;;;;;;;17.79;100.00;95646.78;5011160;28;24455;-77
2022/08/27 05:57:34;;;;;;;32.03;28.27;;;;;;;17.88;100.00;95648.53;5011258;28;24436;-77
2022/08/27 06:02:45;;;;;;;32.50;25.73;;;;;;;17.83;100.00;95648.13;4995006;28;24432;-77
2022/08/27 06:05:12;;;;;;;31.15;25.60;;;;;;;17.82;100.00;95645.66;5010605;28;24865;-76
2022/08/27 06:07:39;;;;;;;32.10;27.42;;;;;;;17.90;100.00;95653.63;5011087;28;24464;-77
2022/08/27 06:10:08;;;;;;;34.50;28.83;;;;;;;17.78;100.00;95650.38;5009115;28;24444;-76
2022/08/27 06:12:35;;;;;;;32.40;28.67;;;;;;;17.73;100.00;95654.38;5006695;28;24439;-76
2022/08/27 06:15:01;;;;;;;32.00;28.45;;;;;;;17.73;100.00;95654.38;5010602;28;24444;-76
2022/08/27 06:17:29;;;;;;;36.90;30.35;;;;;;;17.60;100.00;95654.66;5010481;28;24440;-76
2022/08/27 06:19:56;;;;;;;38.30;28.27;;;;;;;17.60;100.00;95652.03;5009002;28;24447;-77
2022/08/27 06:22:23;;;;;;;32.58;27.70;;;;;;;17.65;100.00;95650.66;5006518;28;25087;-77
2022/08/27 06:24:50;;;;;;;32.15;27.08;;;;;;;17.72;100.00;95653.50;5002374;28;24803;-76
2022/08/27 06:27:19;;;;;;;30.90;27.52;;;;;;;17.75;100.00;95655.88;5010424;28;24453;-76
2022/08/27 06:29:46;;;;;;;32.25;27.33;;;;;;;17.87;100.00;95661.78;5006548;28;24452;-76
2022/08/27 06:32:14;;;;;;;31.45;27.10;;;;;;;17.92;100.00;95659.56;5006892;28;24444;-76
2022/08/27 06:34:40;;;;;;;30.77;25.90;;;;;;;18.07;100.00;95649.44;5009968;28;24885;-77
2022/08/27 06:37:07;;;;;;;30.25;26.23;;;;;;;18.26;100.00;95656.38;5007661;28;24444;-76
2022/08/27 06:39:35;;;;;;;33.58;27.50;;;;;;;18.32;100.00;95656.63;5009166;28;24439;-76
2022/08/27 06:42:02;;;;;;;33.38;26.08;;;;;;;18.26;100.00;95657.19;5003843;28;24884;-77
2022/08/27 06:44:30;;;;;;;32.47;27.57;;;;;;;18.13;100.00;95657.53;5009682;28;24443;-77
2022/08/27 06:46:56;;;;;;;31.80;27.40;;;;;;;18.13;100.00;95659.31;5002896;28;25029;-76
2022/08/27 06:49:23;;;;;;;33.80;28.60;;;;;;;18.10;100.00;95660.44;5010421;28;24447;-77
2022/08/27 06:51:50;;;;;;;31.02;27.45;;;;;;;18.10;100.00;95670.94;5001776;28;24428;-76
2022/08/27 06:54:18;;;;;;;32.08;26.95;;;;;;;18.07;100.00;95665.97;5000742;28;24452;-76
2022/08/27 06:56:45;;;;;;;30.77;26.17;;;;;;;18.14;100.00;95664.44;5006572;28;24499;-76
2022/08/27 06:59:15;;;;;;;31.13;26.95;;;;;;;18.23;100.00;95660.09;5004804;28;24447;-77
2022/08/27 07:01:45;;;;;;;32.63;25.50;;;;;;;18.24;100.00;95660.91;5006851;28;24460;-77
2022/08/27 07:04:14;;;;;;;31.60;26.33;;;;;;;18.22;100.00;95657.63;4999084;28;24440;-77
2022/08/27 07:06:40;;;;;;;33.05;25.38;;;;;;;18.28;100.00;95667.50;5008477;28;24440;-77
2022/08/27 07:09:08;;;;;;;32.00;25.67;;;;;;;18.24;100.00;95663.53;5008762;28;24444;-77
2022/08/27 07:11:35;;;;;;;30.60;26.55;;;;;;;18.07;100.00;95667.78;5019295;28;24439;-76
2022/08/27 07:14:02;;;;;;;32.50;24.35;;;;;;;18.14;100.00;95661.81;5016588;28;24472;-76
2022/08/27 07:16:29;;;;;;;28.80;24.90;;;;;;;18.13;100.00;95657.53;5011658;28;24576;-76
2022/08/27 07:18:59;;;;;;;25.60;22.90;;;;;;;18.13;100.00;95661.94;5009760;28;24440;-76
2022/08/27 07:21:27;;;;;;;28.38;23.83;;;;;;;18.04;100.00;95674.13;5005405;28;24459;-76
2022/08/27 07:23:57;;;;;;;25.45;22.35;;;;;;;18.12;100.00;95663.72;5005752;28;24440;-78
2022/08/27 07:26:24;;;;;;;28.63;24.70;;;;;;;18.07;100.00;95675.63;5008940;28;24455;-78
2022/08/27 07:28:52;;;;;;;25.38;22.75;;;;;;;18.04;100.00;95675.91;5011052;28;24555;-77
2022/08/27 07:31:21;;;;;;;24.23;21.60;;;;;;;18.06;100.00;95676.63;5010603;28;24439;-78
2022/08/27 07:33:48;;;;;;;24.02;21.45;;;;;;;18.22;100.00;95686.47;5008697;28;24448;-78
2022/08/27 07:36:16;;;;;;;22.90;20.45;;;;;;;18.24;100.00;95684.50;5013431;28;24451;-78
2022/08/27 07:38:43;;;;;;;23.30;19.58;;;;;;;18.22;100.00;95689.09;5014752;28;24448;-77
2022/08/27 07:41:12;;;;;;;21.33;19.23;;;;;;;18.13;100.00;95690.75;5006330;28;24540;-75
2022/08/27 07:46:25;;;;;;;22.58;20.08;;;;;;;18.26;100.00;95693.88;5010951;28;25020;-75
2022/08/27 07:48:54;;;;;;;23.02;20.33;;;;;;;18.31;100.00;95694.28;5009774;28;24436;-76
2022/08/27 07:51:25;;;;;;;23.08;19.20;;;;;;;18.47;100.00;95691.03;5018624;28;24532;-79
2022/08/27 07:53:52;;;;;;;24.27;20.25;;;;;;;18.28;100.00;95699.81;5014678;28;24444;-80
2022/08/27 07:56:20;;;;;;;22.77;19.38;;;;;;;18.38;100.00;95697.13;5014918;28;24794;-80
2022/08/27 07:58:46;;;;;;;23.05;20.70;;;;;;;18.40;100.00;95699.63;5009486;28;24970;-79
2022/08/27 08:01:13;;;;;;;25.38;20.83;;;;;;;18.41;100.00;95696.03;5018049;28;24452;-79
2022/08/27 08:03:40;;;;;;;21.53;19.23;;;;;;;18.51;100.00;95697.63;5017210;28;24451;-79
2022/08/27 08:06:11;;;;;;;23.13;20.50;;;;;;;18.47;100.00;95698.06;5017961;28;24436;-79
2022/08/27 08:08:40;;;;;;;25.15;20.40;;;;;;;18.47;100.00;95698.06;5012368;28;24451;-77
2022/08/27 08:11:07;;;;;;;26.58;23.02;;;;;;;18.34;100.00;95693.16;5006889;28;24491;-77
2022/08/27 08:13:34;;;;;;;32.80;23.98;;;;;;;18.31;100.00;95699.50;5012056;28;24498;-77
2022/08/27 08:16:00;;;;;;;31.02;23.83;;;;;;;18.24;100.00;95705.47;5006781;28;24433;-78
2022/08/27 08:18:27;;;;;;;29.08;24.65;;;;;;;18.16;100.00;95700.13;5011625;28;24444;-78
2022/08/27 08:21:00;;;;;;;29.25;22.90;;;;;;;18.37;100.00;95698.94;5008781;28;25005;-78
2022/08/27 08:23:26;;;;;;;25.92;23.13;;;;;;;18.59;100.00;95699.50;5014198;28;24467;-78
2022/08/27 08:25:56;;;;;;;29.80;23.33;;;;;;;18.40;100.00;95697.84;5021418;28;24436;-78
2022/08/27 08:28:23;;;;;;;31.80;22.98;;;;;;;18.34;100.00;95699.22;5014419;28;24431;-77
2022/08/27 08:30:51;;;;;;;26.13;23.25;;;;;;;18.51;100.00;95694.19;5007091;28;24455;-78
2022/08/27 08:33:18;;;;;;;29.73;22.83;;;;;;;18.41;100.00;95703.91;5014536;28;24451;-77
2022/08/27 08:35:44;;;;;;;28.65;24.60;;;;;;;18.45;100.00;95706.06;5012352;28;24464;-78
2022/08/27 08:38:10;;;;;;;25.55;21.60;;;;;;;18.60;100.00;95704.59;5017505;28;24807;-78
2022/08/27 08:40:40;;;;;;;31.38;23.65;;;;;;;18.64;100.00;95707.75;5013493;28;24438;-77
2022/08/27 08:43:18;;;;;;;31.35;25.05;;;;;;;18.59;100.00;95713.44;5009374;28;24456;-77
2022/08/27 08:45:45;;;;;;;26.77;24.08;;;;;;;18.89;100.00;95708.06;5013375;28;24429;-77
2022/08/27 08:48:15;;;;;;;28.70;23.23;;;;;;;18.84;100.00;95719.81;5011956;28;24442;-78
2022/08/27 08:50:53;;;;;;;31.70;26.88;;;;;;;18.73;100.00;95714.78;5013343;28;24437;-78
2022/08/27 08:53:32;;;;;;;31.00;25.77;;;;;;;18.63;100.00;95717.44;5012998;28;24535;-78
2022/08/27 08:56:01;;;;;;;47.65;29.23;;;;;;;18.52;100.00;95722.06;5012957;28;24530;-77
2022/08/27 08:58:37;;;;;;;36.30;28.63;;;;;;;18.52;100.00;95722.88;5013216;28;24443;-78
2022/08/27 09:01:06;;;;;;;35.28;27.40;;;;;;;18.57;100.00;95718.00;5012851;28;24432;-78
2022/08/27 09:03:35;;;;;;;35.63;29.08;;;;;;;18.63;100.00;95720.06;5012062;28;24794;-77
2022/08/27 09:06:06;;;;;;;36.05;28.50;;;;;;;18.58;100.00;95719.69;5007229;28;24458;-77
2022/08/27 09:08:34;;;;;;;37.85;28.55;;;;;;;18.80;100.00;95720.25;5012776;28;24436;-77
2022/08/27 09:11:07;;;;;;;31.10;27.65;;;;;;;18.90;100.00;95722.81;5009579;28;24477;-77
2022/08/27 09:13:38;;;;;;;30.98;26.52;;;;;;;18.87;100.00;95729.19;5006958;28;24978;-77
2022/08/27 09:16:06;;;;;;;32.45;27.75;;;;;;;18.91;100.00;95727.94;5009766;28;24472;-78
2022/08/27 09:18:36;;;;;;;33.33;29.67;;;;;;;18.72;100.00;95734.09;5011224;28;24981;-78
2022/08/27 09:21:10;;;;;;;34.90;27.75;;;;;;;18.58;100.00;95734.59;5010824;28;24694;-78
2022/08/27 09:23:45;;;;;;;34.58;28.42;;;;;;;18.53;100.00;95737.63;5013703;28;25190;-78
2022/08/27 09:26:20;;;;;;;39.80;30.55;;;;;;;18.51;100.00;95733.53;5017464;28;24436;-78
2022/08/27 09:31:41;;;;;;;34.47;28.67;;;;;;;18.42;100.00;95737.00;4993848;28;24441;-78
2022/08/27 09:34:08;;;;;;;37.28;30.08;;;;;;;18.33;100.00;95733.47;5015757;28;24444;-78
2022/08/27 09:36:34;;;;;;;37.03;30.42;;;;;;;18.15;100.00;95736.00;5014127;28;24447;-78
2022/08/27 09:39:06;;;;;;;40.70;33.33;;;;;;;18.01;100.00;95741.72;5008490;28;24448;-78
2022/08/27 09:41:40;;;;;;;44.60;34.57;;;;;;;17.87;100.00;95735.97;5007410;28;24452;-79
2022/08/27 09:44:11;;;;;;;44.45;33.75;;;;;;;17.89;100.00;95736.66;5011736;28;24468;-78
2022/08/27 09:46:38;;;;;;;49.17;34.73;;;;;;;17.78;100.00;95731.56;5015284;28;24556;-78
2022/08/27 09:49:10;;;;;;;38.67;34.23;;;;;;;17.89;100.00;95731.41;5009309;28;24861;-78
2022/08/27 09:51:40;;;;;;;37.30;31.80;;;;;;;17.90;100.00;95730.44;5010747;28;25016;-78
2022/08/27 09:54:07;;;;;;;39.88;30.88;;;;;;;17.94;100.00;95730.97;5008549;28;24447;-78
2022/08/27 09:56:36;;;;;;;33.33;28.83;;;;;;;17.95;100.00;95724.78;5007948;28;24977;-78
2022/08/27 09:59:06;;;;;;;41.43;30.37;;;;;;;17.81;100.00;95733.09;5014348;28;24439;-78
2022/08/27 10:01:37;;;;;;;34.22;28.23;;;;;;;17.83;100.00;95731.97;5005654;28;25005;-78
2022/08/27 10:04:06;;;;;;;32.72;28.67;;;;;;;17.79;100.00;95727.16;5013247;28;24488;-78
2022/08/27 10:06:33;;;;;;;36.38;28.15;;;;;;;17.74;100.00;95727.56;5006344;28;24444;-78
2022/08/27 10:09:05;;;;;;;30.88;23.85;;;;;;;17.85;100.00;95724.81;5017477;28;24456;-77
2022/08/27 10:11:36;;;;;;;29.05;25.02;;;;;;;17.89;100.00;95731.41;5013902;28;24421;-78
2022/08/27 10:14:12;;;;;;;27.00;23.15;;;;;;;17.98;100.00;95732.34;5015395;28;24448;-80
2022/08/27 10:16:54;;;;;;;28.45;22.52;;;;;;;18.06;100.00;95729.03;5010262;28;24444;-79
2022/08/27 10:19:42;;;;;;;27.40;24.40;;;;;;;17.85;100.00;95730.03;5007738;28;25023;-78
2022/08/27 10:22:17;;;;;;;28.45;25.33;;;;;;;17.80;100.00;95728.81;5008910;28;24452;-79
2022/08/27 10:25:02;;;;;;;30.45;25.08;;;;;;;17.97;100.00;95733.31;5014584;28;24440;-79
2022/08/27 10:27:37;;;;;;;27.42;24.50;;;;;;;17.98;100.00;95727.09;5012319;28;24443;-79
2022/08/27 10:30:07;;;;;;;29.60;23.77;;;;;;;17.88;100.00;95729.75;5016447;28;24512;-79
2022/08/27 10:32:52;;;;;;;28.30;22.90;;;;;;;18.03;100.00;95727.50;5016738;28;24707;-79
2022/08/27 10:35:22;;;;;;;28.25;23.38;;;;;;;18.21;100.00;95734.63;5012635;28;24428;-79
2022/08/27 10:38:00;;;;;;;33.13;24.27;;;;;;;18.17;100.00;95734.09;5012444;28;24463;-79
2022/08/27 10:40:35;;;;;;;29.20;23.75;;;;;;;18.04;100.00;95734.41;5013564;28;24470;-79
2022/08/27 10:43:17;;;;;;;25.50;22.80;;;;;;;18.17;100.00;95728.84;5015715;28;24455;-78
2022/08/27 10:45:52;;;;;;;29.23;23.87;;;;;;;18.07;100.00;95731.50;5012482;28;24452;-78
2022/08/27 10:48:29;;;;;;;29.50;23.80;;;;;;;18.10;100.00;95728.59;5012682;28;24439;-79
2022/08/27 10:51:02;;;;;;;28.48;25.50;;;;;;;18.21;100.00;95732.84;5006553;28;24451;-78
2022/08/27 10:53:38;;;;;;;28.60;25.60;;;;;;;18.31;100.00;95728.34;5011287;28;24499;-78
2022/08/27 10:56:13;;;;;;;37.03;25.98;;;;;;;18.20;100.00;95733.78;5009546;28;24445;-78
2022/08/27 10:58:52;;;;;;;31.15;26.08;;;;;;;18.31;100.00;95738.00;5013858;28;24447;-78
2022/08/27 11:01:26;;;;;;;35.13;26.23;;;;;;;18.26;100.00;95740.25;5011683;28;24790;-79
2022/08/27 11:03:59;;;;;;;32.93;25.37;;;;;;;18.18;100.00;95740.16;5035344;23;24496;-75
2022/08/27 11:06:31;;;;;;;31.35;24.98;;;;;;;18.26;100.00;95735.84;5002505;28;24993;-75
2022/08/27 11:09:01;;;;;;;33.67;26.30;;;;;;;18.25;100.00;95736.81;5000098;28;24447;-75
2022/08/27 11:11:36;;;;;;;34.30;26.25;;;;;;;18.19;100.00;95732.13;5004007;28;25004;-75
2022/08/27 11:14:08;;;;;;;33.40;25.58;;;;;;;18.29;100.00;95734.72;5001785;28;24441;-75
2022/08/27 11:16:39;;;;;;;31.60;25.83;;;;;;;18.30;100.00;95739.00;5004548;28;24468;-75
2022/08/27 11:19:16;;;;;;;32.90;27.00;;;;;;;18.36;100.00;95734.00;5007989;28;24522;-75
2022/08/27 11:21:47;;;;;;;36.53;27.45;;;;;;;18.34;100.00;95738.56;5007757;28;24436;-75
2022/08/27 11:24:23;;;;;;;28.77;25.67;;;;;;;18.22;100.00;95738.91;5007093;28;25016;-75
2022/08/27 11:26:53;;;;;;;34.22;24.95;;;;;;;18.37;100.00;95738.28;5003013;28;24978;-75
2022/08/27 11:29:28;;;;;;;32.13;26.92;;;;;;;18.50;100.00;95735.31;5004181;28;24433;-75
2022/08/27 11:32:04;;;;;;;30.40;26.10;;;;;;;18.69;100.00;95731.78;5004513;28;24854;-75